Terminal Aerodrome Forecast
Issued by NWS

Home | Current Version | Previous Version | Text Only | Print | Product List | Glossary On
Versions: 1 2 3 4 5 6 7 8 9 10 11 12 13 14 15 16
000
FTAK31 PAJN 281700
TAFAPG
TAF
PAPG 281720Z 2818/2918 VRB03KT 5SM -RA BR SCT004 BKN040 OVC070
     FM282100 06005KT 6SM -RA BR SCT020 BKN040 OVC060
     FM290200 08003KT 5SM -RA BR BKN025 OVC040
     FM290900 VRB03KT 5SM -RA BR SCT005 OVC015
      AMD LTD TO CLD VIS AND WIND 2906/2915=

USA.gov is the U.S. government's official web portal to all federal, state and local government web resources and services.